createdAt,value
2018-03-30T00:01:58.160Z,21.17
2018-03-30T00:04:26.592Z,20.23
2018-03-30T00:06:54.528Z,21.90
2018-03-30T00:09:28.680Z,19.97
2018-03-30T00:11:58.665Z,20.60
2018-03-30T00:14:27.431Z,20.93
2018-03-30T00:16:55.370Z,21.37
2018-03-30T00:19:23.345Z,19.50
2018-03-30T00:21:51.254Z,23.90
2018-03-30T00:24:19.306Z,24.47
2018-03-30T00:26:47.472Z,23.87
2018-03-30T00:29:15.454Z,23.47
2018-03-30T00:31:43.600Z,19.30
2018-03-30T00:34:11.722Z,18.90
2018-03-30T00:36:39.647Z,20.03
2018-03-30T00:39:07.546Z,21.73
2018-03-30T00:41:35.484Z,24.17
2018-03-30T00:44:03.495Z,18.00
2018-03-30T00:46:31.353Z,22.30
2018-03-30T00:48:59.249Z,25.37
2018-03-30T00:51:27.169Z,30.90
2018-03-30T00:53:56.279Z,37.17
2018-03-30T00:56:24.210Z,35.13
2018-03-30T00:58:52.056Z,38.57
2018-03-30T01:01:20.450Z,46.43
2018-03-30T01:03:48.713Z,36.07
2018-03-30T01:06:16.584Z,47.27
2018-03-30T01:08:44.503Z,50.43
2018-03-30T01:11:12.416Z,41.53
2018-03-30T01:13:40.697Z,36.63
2018-03-30T01:16:08.655Z,28.47
2018-03-30T01:18:36.539Z,22.10
2018-03-30T01:21:04.517Z,35.40
2018-03-30T01:23:32.398Z,49.37
2018-03-30T01:26:00.284Z,25.23
2018-03-30T01:28:28.177Z,42.43
2018-03-30T01:30:56.047Z,34.77
2018-03-30T01:33:23.961Z,31.87
2018-03-30T01:35:51.872Z,43.60
2018-03-30T01:38:19.935Z,40.53
2018-03-30T01:40:48.063Z,34.00
2018-03-30T01:43:15.952Z,34.80
2018-03-30T01:45:43.919Z,36.53
2018-03-30T01:48:11.815Z,34.13
2018-03-30T01:50:39.763Z,43.07
2018-03-30T01:53:07.681Z,39.93
2018-03-30T01:55:35.612Z,44.93
2018-03-30T01:58:03.492Z,40.63
2018-03-30T02:00:31.425Z,46.10
2018-03-30T02:02:59.321Z,43.90
2018-03-30T02:05:27.180Z,53.43
2018-03-30T02:07:55.074Z,48.67
2018-03-30T02:10:23.324Z,43.80
2018-03-30T02:12:51.704Z,50.07
2018-03-30T02:15:19.814Z,43.80
2018-03-30T02:17:47.677Z,42.63
2018-03-30T02:20:15.568Z,45.67
2018-03-30T02:22:43.419Z,42.73
2018-03-30T02:25:11.313Z,51.43
2018-03-30T02:27:39.243Z,49.63
2018-03-30T02:30:07.665Z,43.43
2018-03-30T02:32:35.571Z,42.73
2018-03-30T02:35:03.431Z,42.63
2018-03-30T02:37:31.348Z,45.37
2018-03-30T02:39:59.193Z,52.87
2018-03-30T02:42:27.103Z,48.43
2018-03-30T02:44:54.986Z,63.63
2018-03-30T02:47:22.867Z,48.53
2018-03-30T02:49:50.701Z,57.90
2018-03-30T02:52:18.691Z,54.97
2018-03-30T02:54:46.535Z,48.00
2018-03-30T02:57:14.389Z,43.40
2018-03-30T02:59:42.265Z,41.00
2018-03-30T03:02:10.171Z,42.27
2018-03-30T03:04:38.066Z,47.10
2018-03-30T03:07:05.967Z,37.80
2018-03-30T03:09:33.952Z,42.40
2018-03-30T03:12:01.867Z,45.73
2018-03-30T03:14:29.784Z,47.17
2018-03-30T03:16:57.807Z,44.70
2018-03-30T03:19:25.787Z,49.77
2018-03-30T03:21:53.640Z,48.57
2018-03-30T03:24:21.529Z,42.43
2018-03-30T03:26:49.449Z,50.90
2018-03-30T03:29:17.337Z,48.67
2018-03-30T03:31:45.255Z,45.97
2018-03-30T03:34:13.144Z,46.67
2018-03-30T03:36:41.049Z,50.27
2018-03-30T03:39:08.917Z,45.80
2018-03-30T03:41:36.776Z,47.33
2018-03-30T03:44:04.680Z,46.67
2018-03-30T03:46:32.588Z,47.93
2018-03-30T03:49:00.452Z,55.73
2018-03-30T03:51:28.355Z,52.87
2018-03-30T03:53:56.202Z,49.90
2018-03-30T03:56:24.060Z,56.87
2018-03-30T03:58:52.007Z,50.60
2018-03-30T04:01:19.894Z,48.50
2018-03-30T04:03:47.768Z,48.10
2018-03-30T04:06:15.671Z,45.17
2018-03-30T04:08:43.574Z,45.30
2018-03-30T04:11:11.608Z,43.07
2018-03-30T04:13:39.472Z,43.13
2018-03-30T04:16:07.328Z,46.00
2018-03-30T04:18:35.179Z,47.67
2018-03-30T04:21:03.074Z,41.10
2018-03-30T04:23:30.941Z,37.77
2018-03-30T04:25:58.876Z,40.40
2018-03-30T04:28:26.803Z,41.03
2018-03-30T04:30:55.325Z,41.80
2018-03-30T04:33:23.260Z,38.83
2018-03-30T04:35:51.126Z,36.57
2018-03-30T04:38:19.117Z,41.90
2018-03-30T04:40:46.987Z,34.80
2018-03-30T04:43:14.880Z,31.97
2018-03-30T04:45:42.788Z,36.27
2018-03-30T04:48:10.624Z,36.90
2018-03-30T04:50:38.525Z,32.60
2018-03-30T04:53:06.426Z,36.30
2018-03-30T04:55:34.430Z,36.60
2018-03-30T04:58:02.295Z,32.73
2018-03-30T05:00:30.177Z,33.23
2018-03-30T05:02:58.033Z,36.10
2018-03-30T05:05:25.897Z,38.40
2018-03-30T05:07:53.888Z,32.77
2018-03-30T05:10:21.834Z,39.70
2018-03-30T05:12:49.805Z,34.90
2018-03-30T05:15:17.688Z,37.07
2018-03-30T05:17:45.548Z,32.83
2018-03-30T05:20:13.448Z,34.70
2018-03-30T05:22:41.303Z,33.60
2018-03-30T05:25:09.230Z,34.10
2018-03-30T05:27:37.144Z,30.37
2018-03-30T05:30:05.060Z,29.63
2018-03-30T05:32:32.975Z,24.60
2018-03-30T05:35:00.877Z,22.30
2018-03-30T05:37:28.804Z,20.50
2018-03-30T05:39:56.656Z,25.30
2018-03-30T05:42:24.501Z,25.83
2018-03-30T05:44:52.437Z,27.03
2018-03-30T05:47:20.318Z,24.47
2018-03-30T05:49:48.197Z,22.77
2018-03-30T05:52:16.058Z,24.93
2018-03-30T05:54:43.921Z,26.90
2018-03-30T05:57:11.851Z,25.90
2018-03-30T05:59:39.852Z,20.17
2018-03-30T06:02:07.845Z,19.37
2018-03-30T06:04:35.728Z,18.70
2018-03-30T06:07:03.647Z,18.67
2018-03-30T06:09:31.589Z,20.27
2018-03-30T06:11:59.513Z,17.57
2018-03-30T06:14:27.428Z,16.97
2018-03-30T06:16:55.461Z,17.17
2018-03-30T06:19:23.405Z,15.10
2018-03-30T06:21:51.332Z,15.50
2018-03-30T06:24:20.351Z,15.83
2018-03-30T06:26:50.470Z,13.47
2018-03-30T06:29:20.692Z,15.70
2018-03-30T06:31:48.756Z,14.20
2018-03-30T06:34:17.220Z,15.63
2018-03-30T06:36:49.080Z,18.13
2018-03-30T06:39:17.064Z,17.80
2018-03-30T06:41:44.932Z,16.30
2018-03-30T06:44:12.920Z,19.20
2018-03-30T06:46:40.759Z,15.47
2018-03-30T06:49:08.673Z,18.20
2018-03-30T06:51:36.557Z,17.20
2018-03-30T06:54:04.433Z,18.00
2018-03-30T06:56:32.329Z,16.00
2018-03-30T06:59:00.249Z,21.00
2018-03-30T07:01:28.084Z,15.33
2018-03-30T07:03:55.947Z,17.80
2018-03-30T07:06:23.894Z,18.40
2018-03-30T07:08:51.824Z,21.93
2018-03-30T07:11:19.684Z,17.40
2018-03-30T07:13:48.410Z,24.27
2018-03-30T07:16:16.248Z,20.30
2018-03-30T07:18:44.848Z,21.93
2018-03-30T07:21:12.732Z,20.17
2018-03-30T07:23:40.778Z,18.00
2018-03-30T07:26:09.083Z,23.43
2018-03-30T07:28:37.053Z,20.00
2018-03-30T07:31:04.933Z,17.40
2018-03-30T07:33:32.874Z,17.70
2018-03-30T07:36:00.754Z,19.17
2018-03-30T07:38:29.137Z,19.03
2018-03-30T07:40:56.975Z,21.57
2018-03-30T07:43:24.988Z,20.10
2018-03-30T07:45:52.867Z,19.90
2018-03-30T07:48:20.768Z,19.50
2018-03-30T07:50:48.697Z,22.10
2018-03-30T07:53:16.569Z,21.60
2018-03-30T07:55:44.458Z,22.27
2018-03-30T07:58:12.372Z,24.33
2018-03-30T08:00:40.417Z,22.10
2018-03-30T08:03:08.390Z,21.80
2018-03-30T08:05:36.284Z,20.50
2018-03-30T08:08:04.159Z,22.17
2018-03-30T08:10:32.028Z,21.87
2018-03-30T08:12:59.927Z,22.37
2018-03-30T08:15:27.825Z,23.63
2018-03-30T08:17:55.877Z,19.53
2018-03-30T08:20:23.828Z,28.27
2018-03-30T08:22:51.675Z,28.27
2018-03-30T08:25:20.151Z,26.50
2018-03-30T08:27:48.109Z,26.47
2018-03-30T08:30:16.052Z,31.17
2018-03-30T08:32:44.137Z,28.10
2018-03-30T08:35:12.012Z,26.53
2018-03-30T08:37:40.123Z,26.07
2018-03-30T08:40:08.054Z,24.70
2018-03-30T08:42:35.985Z,27.97
2018-03-30T08:45:03.862Z,23.90
2018-03-30T08:47:31.784Z,23.53
2018-03-30T08:50:00.301Z,21.83
2018-03-30T08:52:28.164Z,23.37
2018-03-30T08:54:56.085Z,23.70
2018-03-30T08:57:24.045Z,23.90
2018-03-30T08:59:52.082Z,23.37
2018-03-30T09:02:19.972Z,21.37
2018-03-30T09:04:47.890Z,28.83
2018-03-30T09:07:15.787Z,25.93
2018-03-30T09:09:43.723Z,26.90
2018-03-30T09:12:11.767Z,23.30
2018-03-30T09:14:43.197Z,25.40
2018-03-30T09:17:11.129Z,26.97
2018-03-30T09:19:39.011Z,33.03
2018-03-30T09:22:06.998Z,24.60
2018-03-30T09:24:35.013Z,32.90
2018-03-30T09:27:02.874Z,24.93
2018-03-30T09:29:31.604Z,27.93
2018-03-30T09:31:59.472Z,30.67
2018-03-30T09:34:27.407Z,25.33
2018-03-30T09:36:55.912Z,28.37
2018-03-30T09:39:23.968Z,28.20
2018-03-30T09:41:51.920Z,28.13
2018-03-30T09:44:19.843Z,29.17
2018-03-30T09:46:47.926Z,26.60
2018-03-30T09:49:15.772Z,28.17
2018-03-30T09:51:43.691Z,34.27
2018-03-30T09:54:11.620Z,36.77
2018-03-30T09:56:39.520Z,38.13
2018-03-30T09:59:07.450Z,34.43
2018-03-30T10:01:35.347Z,36.77
2018-03-30T10:04:03.345Z,33.40
2018-03-30T10:06:31.243Z,31.77
2018-03-30T10:08:59.132Z,30.77
2018-03-30T10:11:26.990Z,41.47
2018-03-30T10:13:54.929Z,29.33
2018-03-30T10:16:22.831Z,38.10
2018-03-30T10:18:50.880Z,32.13
2018-03-30T10:21:18.819Z,30.30
2018-03-30T10:23:46.648Z,28.13
2018-03-30T10:26:14.585Z,25.63
2018-03-30T10:28:42.472Z,24.10
2018-03-30T10:31:10.385Z,26.23
2018-03-30T10:33:38.254Z,29.13
2018-03-30T10:36:06.194Z,24.10
2018-03-30T10:38:34.052Z,25.23
2018-03-30T10:41:01.954Z,24.43
2018-03-30T10:43:29.872Z,29.83
2018-03-30T10:45:57.796Z,31.33
2018-03-30T10:48:26.038Z,37.03
2018-03-30T10:50:54.089Z,29.63
2018-03-30T12:18:19.736Z,27.90
2018-03-30T12:20:47.600Z,32.87
2018-03-30T12:23:15.452Z,43.97
2018-03-30T12:25:43.316Z,33.93
2018-03-30T12:28:11.202Z,23.27
2018-03-30T12:30:39.389Z,37.90
2018-03-30T12:33:07.284Z,21.20
2018-03-30T12:35:35.132Z,32.50
2018-03-30T12:38:03.040Z,34.63
2018-03-30T12:40:30.897Z,31.00
2018-03-30T12:42:58.771Z,27.00
2018-03-30T12:45:26.632Z,38.93
2018-03-30T12:47:54.483Z,24.60
2018-03-30T12:50:22.358Z,27.17
2018-03-30T12:52:50.209Z,26.73
2018-03-30T12:55:18.116Z,25.30
2018-03-30T12:57:45.984Z,28.90
2018-03-30T13:00:13.824Z,35.63
2018-03-30T13:02:41.684Z,33.93
2018-03-30T13:05:09.542Z,24.43
2018-03-30T13:07:37.404Z,29.40
2018-03-30T13:10:05.254Z,30.20
2018-03-30T13:12:33.128Z,24.50
2018-03-30T13:15:01.011Z,26.17
2018-03-30T13:17:28.860Z,25.70
2018-03-30T13:19:57.006Z,22.37
2018-03-30T13:22:24.854Z,34.90
2018-03-30T13:24:52.725Z,25.83
2018-03-30T13:27:20.597Z,32.37
2018-03-30T13:29:48.463Z,24.67
2018-03-30T13:32:16.363Z,24.50
2018-03-30T13:34:44.250Z,27.73
2018-03-30T13:37:12.175Z,26.63
2018-03-30T13:39:40.048Z,24.53
2018-03-30T13:42:07.906Z,22.80
2018-03-30T13:44:35.832Z,31.40
2018-03-30T13:47:03.683Z,27.57
2018-03-30T13:49:31.570Z,25.43
2018-03-30T13:52:02.325Z,26.03
2018-03-30T13:54:30.260Z,22.33
2018-03-30T13:57:02.068Z,49.13
2018-03-30T13:59:29.961Z,22.07
2018-03-30T14:02:07.765Z,19.70
2018-03-30T14:04:37.236Z,23.90
2018-03-30T14:07:07.106Z,21.80
2018-03-30T14:09:35.692Z,23.10
2018-03-30T14:12:04.952Z,18.60
2018-03-30T14:14:33.370Z,21.53
2018-03-30T14:17:01.297Z,21.60
2018-03-30T14:19:32.085Z,29.80
2018-03-30T14:22:14.951Z,21.97
2018-03-30T14:24:42.818Z,24.57
2018-03-30T14:27:13.728Z,21.90
2018-03-30T14:29:42.458Z,20.90
2018-03-30T14:32:12.272Z,20.93
2018-03-30T14:34:43.160Z,25.37
2018-03-30T14:37:12.967Z,25.70
2018-03-30T14:39:51.738Z,25.87
2018-03-30T14:42:20.365Z,25.80
2018-03-30T14:44:48.215Z,22.47
2018-03-30T14:47:16.056Z,24.00
2018-03-30T14:49:45.828Z,23.27
2018-03-30T14:52:15.545Z,21.80
2018-03-30T14:54:49.539Z,24.37
2018-03-30T14:57:17.458Z,25.73
2018-03-30T14:59:46.178Z,25.87
2018-03-30T15:02:14.881Z,31.07
2018-03-30T15:04:57.714Z,23.03
2018-03-30T15:07:28.695Z,21.73
2018-03-30T15:09:57.485Z,28.53
2018-03-30T15:12:25.336Z,26.57
2018-03-30T15:14:54.048Z,20.63
2018-03-30T15:17:21.897Z,22.90
2018-03-30T15:19:50.712Z,23.47
2018-03-30T15:22:30.338Z,24.80
2018-03-30T15:24:59.199Z,25.13
2018-03-30T15:27:27.041Z,23.50
2018-03-30T15:29:56.952Z,24.30
2018-03-30T15:32:39.776Z,23.97
2018-03-30T15:35:07.661Z,28.53
2018-03-30T15:37:35.543Z,24.50
2018-03-30T15:40:04.260Z,25.90
2018-03-30T15:42:33.096Z,23.77
2018-03-30T15:45:00.960Z,22.00
2018-03-30T15:47:28.850Z,23.73
2018-03-30T15:49:56.713Z,21.57
2018-03-30T15:52:24.576Z,26.37
2018-03-30T15:54:52.459Z,25.30
2018-03-30T15:57:20.356Z,25.77
2018-03-30T15:59:49.303Z,26.03
2018-03-30T16:02:17.203Z,24.33
2018-03-30T16:04:45.076Z,30.33
2018-03-30T16:07:12.945Z,23.00
2018-03-30T16:09:55.792Z,22.90
2018-03-30T16:12:23.696Z,25.00
2018-03-30T16:14:51.548Z,28.20
2018-03-30T16:17:19.508Z,21.73
2018-03-30T16:19:47.302Z,23.70
2018-03-30T16:22:15.102Z,21.27
2018-03-30T16:24:43.533Z,22.47
2018-03-30T16:27:11.654Z,19.60
2018-03-30T16:29:39.533Z,23.83
2018-03-30T16:32:07.320Z,20.17
2018-03-30T16:34:35.137Z,21.10
2018-03-30T16:37:02.949Z,17.23
2018-03-30T16:39:30.756Z,22.00
2018-03-30T16:41:58.547Z,21.00
2018-03-30T16:44:26.336Z,20.03
2018-03-30T16:46:54.174Z,18.60
2018-03-30T16:49:21.949Z,20.33
2018-03-30T16:51:49.752Z,17.93
2018-03-30T16:54:17.586Z,18.13
2018-03-30T16:56:45.530Z,18.07
2018-03-30T16:59:13.368Z,19.70
2018-03-30T17:01:41.156Z,17.97
2018-03-30T17:04:09.810Z,17.40
2018-03-30T17:06:37.622Z,26.57
2018-03-30T17:09:05.429Z,21.50
2018-03-30T17:11:33.215Z,18.50
2018-03-30T17:14:00.998Z,19.03
2018-03-30T17:16:28.943Z,19.10
2018-03-30T17:18:56.712Z,19.30
2018-03-30T17:21:24.549Z,19.17
2018-03-30T17:23:52.342Z,18.73
2018-03-30T17:26:25.215Z,17.63
2018-03-30T17:28:58.324Z,17.43
2018-03-30T17:34:01.134Z,21.80
2018-03-30T17:36:28.938Z,17.87
2018-03-30T17:38:56.705Z,16.57
2018-03-30T17:41:24.537Z,18.17
2018-03-30T17:43:52.355Z,17.80
2018-03-30T17:46:20.163Z,23.20
2018-03-30T17:48:47.985Z,17.93
2018-03-30T17:51:15.756Z,16.00
2018-03-30T17:53:43.624Z,17.23
2018-03-30T17:56:12.392Z,17.53
2018-03-30T17:58:40.191Z,16.20
2018-03-30T18:01:08.016Z,16.63
2018-03-30T18:03:35.894Z,19.03
2018-03-30T18:06:03.720Z,18.23
2018-03-30T18:08:31.615Z,16.33
2018-03-30T18:10:59.511Z,20.13
2018-03-30T18:13:27.395Z,15.90
2018-03-30T18:15:55.233Z,15.93
2018-03-30T18:18:23.185Z,20.10
2018-03-30T18:20:51.006Z,17.00
2018-03-30T18:23:18.927Z,19.33
2018-03-30T18:25:46.799Z,17.20
2018-03-30T18:28:14.644Z,18.90
2018-03-30T18:30:42.568Z,18.70
2018-03-30T18:33:10.557Z,17.07
2018-03-30T18:35:38.352Z,14.80
2018-03-30T18:38:06.152Z,17.43
2018-03-30T18:40:34.055Z,17.50
2018-03-30T18:43:01.846Z,26.23
2018-03-30T18:45:29.668Z,20.00
2018-03-30T18:47:57.549Z,22.23
2018-03-30T18:50:25.406Z,20.33
2018-03-30T18:52:53.191Z,17.77
2018-03-30T18:55:21.072Z,17.93
2018-03-30T18:57:48.964Z,19.17
2018-03-30T19:00:18.026Z,17.27
2018-03-30T19:02:45.947Z,16.20
2018-03-30T19:05:14.112Z,18.27
2018-03-30T19:07:43.152Z,20.13
2018-03-30T19:10:11.349Z,20.67
2018-03-30T19:12:39.541Z,23.57
2018-03-30T19:15:08.410Z,18.70
2018-03-30T19:17:36.471Z,27.73
2018-03-30T19:20:05.359Z,18.00
2018-03-30T19:22:33.379Z,21.87
2018-03-30T19:25:01.906Z,22.50
2018-03-30T19:27:30.957Z,23.80
2018-03-30T19:29:59.009Z,19.63
2018-03-30T19:32:28.226Z,20.43
2018-03-30T19:34:56.075Z,21.70
2018-03-30T19:37:23.884Z,24.43
2018-03-30T19:39:51.689Z,21.43
2018-03-30T19:42:19.491Z,22.03
2018-03-30T19:44:47.300Z,18.90
2018-03-30T19:47:15.092Z,22.93
2018-03-30T19:49:42.918Z,23.30
2018-03-30T19:52:10.724Z,21.87
2018-03-30T19:54:38.617Z,20.37
2018-03-30T19:57:06.419Z,23.47
2018-03-30T19:59:34.208Z,21.53
2018-03-30T20:02:02.045Z,19.40
2018-03-30T20:04:29.840Z,16.80
2018-03-30T20:06:57.650Z,20.67
2018-03-30T20:09:25.441Z,19.37
2018-03-30T20:11:53.245Z,20.90
2018-03-30T20:14:21.064Z,19.53
2018-03-30T20:16:48.930Z,19.40
2018-03-30T20:19:16.732Z,20.37
2018-03-30T20:21:44.682Z,17.20
2018-03-30T20:24:12.608Z,24.50
2018-03-30T20:26:40.382Z,19.57
2018-03-30T20:29:11.680Z,20.73
2018-03-30T20:31:39.499Z,22.33
2018-03-30T20:34:07.348Z,19.03
2018-03-30T20:36:35.166Z,20.30
2018-03-30T20:39:03.008Z,21.60
2018-03-30T20:41:30.776Z,20.67
2018-03-30T20:43:58.587Z,22.10
2018-03-30T20:46:26.382Z,14.17
2018-03-30T20:48:54.159Z,20.77
2018-03-30T20:51:21.985Z,23.13
2018-03-30T20:53:49.781Z,21.73
2018-03-30T20:56:17.580Z,26.30
2018-03-30T20:58:45.424Z,18.60
2018-03-30T21:01:13.242Z,21.20
2018-03-30T21:03:41.054Z,19.27
2018-03-30T21:06:08.860Z,20.00
2018-03-30T21:08:36.716Z,21.03
2018-03-30T21:11:04.502Z,21.90
2018-03-30T21:13:32.385Z,19.20
2018-03-30T21:16:00.171Z,20.47
2018-03-30T21:18:27.981Z,20.30
2018-03-30T21:20:55.766Z,24.53
2018-03-30T21:23:23.563Z,24.20
2018-03-30T21:25:51.513Z,22.47
2018-03-30T21:28:19.321Z,23.30
2018-03-30T21:30:47.140Z,27.43
2018-03-30T21:33:14.964Z,26.17
2018-03-30T21:35:42.912Z,29.87
2018-03-30T21:38:10.710Z,26.50
2018-03-30T21:40:38.517Z,26.47
2018-03-30T21:43:06.341Z,24.27
2018-03-30T21:45:34.125Z,23.83
2018-03-30T21:48:01.908Z,21.23
2018-03-30T21:50:29.762Z,23.37
2018-03-30T21:52:57.609Z,24.13
2018-03-30T21:55:25.498Z,24.97
2018-03-30T21:57:53.406Z,31.93
2018-03-30T22:00:21.260Z,28.53
2018-03-30T22:02:49.040Z,25.50
2018-03-30T22:05:16.876Z,26.93
2018-03-30T22:07:44.768Z,24.80
2018-03-30T22:10:12.609Z,23.77
2018-03-30T22:12:40.521Z,24.37
2018-03-30T22:15:08.319Z,23.40
2018-03-30T22:17:36.121Z,28.83
2018-03-30T22:20:03.939Z,25.87
2018-03-30T22:22:31.711Z,26.60
2018-03-30T22:24:59.522Z,27.50
2018-03-30T22:27:27.327Z,28.00
2018-03-30T22:29:55.113Z,24.57
2018-03-30T22:32:22.904Z,25.17
2018-03-30T22:34:50.752Z,27.90
2018-03-30T22:37:18.561Z,23.77
2018-03-30T22:39:46.368Z,31.87
2018-03-30T22:42:14.173Z,25.90
2018-03-30T22:44:41.972Z,26.00
2018-03-30T22:47:09.791Z,24.00
2018-03-30T22:49:37.605Z,33.47
2018-03-30T22:52:05.392Z,24.60
2018-03-30T22:54:33.188Z,20.63
2018-03-30T22:57:01.063Z,26.67
2018-03-30T22:59:28.823Z,25.37
2018-03-30T23:01:56.596Z,29.73
2018-03-30T23:04:24.395Z,23.73
2018-03-30T23:06:52.186Z,24.57
2018-03-30T23:09:19.964Z,27.70
2018-03-30T23:11:47.784Z,20.63
2018-03-30T23:14:15.317Z,27.83
2018-03-30T23:16:41.316Z,25.07
2018-03-30T23:19:07.297Z,23.43
2018-03-30T23:21:33.264Z,25.17
2018-03-30T23:23:59.220Z,24.33
2018-03-30T23:26:25.988Z,22.63
2018-03-30T23:28:52.692Z,25.27
2018-03-30T23:31:18.740Z,20.83
2018-03-30T23:33:44.695Z,24.27
2018-03-30T23:36:10.695Z,23.50
2018-03-30T23:38:36.698Z,24.00
2018-03-30T23:41:02.705Z,23.00
2018-03-30T23:43:29.446Z,26.23
2018-03-30T23:45:55.428Z,22.73
2018-03-30T23:48:21.433Z,21.63
2018-03-30T23:50:47.447Z,22.07
2018-03-30T23:53:14.446Z,22.70
2018-03-30T23:55:40.425Z,22.83
2018-03-30T23:58:06.438Z,21.80
